Time;durP1;ratioP1;P1;durP2;ratioP2;P2;SDS_P1;SDS_P2;PMS_P1;PMS_P2;Temp;Humidity;BMP_temperature;BMP_pressure;BME280_temperature;BME280_humidity;BME280_pressure;Samples;Min_cycle;Max_cycle;Signal;HPM_P1;HPM_P2
2021/05/31 00:00:57;;;;;;;5.95;4.05;;;12.50;99.90;;;;;;4986343;28;20027;-80
2021/05/31 00:03:23;;;;;;;6.10;3.85;;;12.50;99.90;;;;;;4986078;28;20023;-79
2021/05/31 00:05:49;;;;;;;6.35;4.25;;;12.40;99.90;;;;;;4984864;28;20031;-80
2021/05/31 00:08:14;;;;;;;5.85;4.78;;;12.40;99.90;;;;;;4986074;28;20031;-82
2021/05/31 00:10:40;;;;;;;7.50;4.35;;;12.30;99.90;;;;;;4986020;28;20098;-80
2021/05/31 00:13:06;;;;;;;6.75;4.70;;;12.30;99.90;;;;;;4985766;28;20023;-80
2021/05/31 00:15:32;;;;;;;6.68;4.22;;;12.30;99.90;;;;;;4985979;28;20038;-79
2021/05/31 00:17:58;;;;;;;7.53;4.80;;;12.20;99.90;;;;;;4985968;28;20034;-79
2021/05/31 00:20:24;;;;;;;6.85;4.53;;;12.20;99.90;;;;;;5003263;28;20035;-80
2021/05/31 00:22:50;;;;;;;7.75;4.80;;;12.10;99.90;;;;;;4989322;28;20117;-79
2021/05/31 00:25:17;;;;;;;9.23;6.70;;;12.10;99.90;;;;;;4989248;28;20030;-79
2021/05/31 00:27:42;;;;;;;8.50;3.75;;;12.10;99.90;;;;;;4987720;28;20033;-80
2021/05/31 00:30:10;;;;;;;6.05;4.70;;;12.00;99.90;;;;;;4987954;28;20388;-81
2021/05/31 00:32:36;;;;;;;11.63;5.22;;;12.00;99.90;;;;;;4989118;28;20042;-80
2021/05/31 00:35:03;;;;;;;11.05;5.78;;;12.00;99.90;;;;;;4989036;28;20027;-81
2021/05/31 00:37:29;;;;;;;7.70;5.00;;;12.00;99.90;;;;;;4988964;28;20038;-80
2021/05/31 00:39:55;;;;;;;7.30;5.57;;;11.90;99.90;;;;;;4987879;28;20031;-80
2021/05/31 00:42:21;;;;;;;8.15;5.30;;;11.80;99.90;;;;;;4989097;28;20058;-80
2021/05/31 00:44:47;;;;;;;8.05;5.38;;;11.80;99.90;;;;;;4987609;28;20027;-80
2021/05/31 00:47:12;;;;;;;7.45;4.97;;;11.80;99.90;;;;;;4988911;28;20487;-80
2021/05/31 00:49:38;;;;;;;9.48;5.35;;;11.80;99.90;;;;;;4988868;28;20054;-81
2021/05/31 00:52:06;;;;;;;6.60;5.20;;;11.80;99.90;;;;;;4988859;28;20097;-79
2021/05/31 00:54:32;;;;;;;8.00;5.80;;;11.70;99.90;;;;;;4988802;28;20068;-80
2021/05/31 00:56:58;;;;;;;9.55;5.82;;;11.80;99.90;;;;;;4988699;28;20054;-80
2021/05/31 00:59:24;;;;;;;10.23;6.40;;;11.70;99.90;;;;;;4988534;28;20045;-80
2021/05/31 01:01:50;;;;;;;9.80;5.15;;;11.60;99.90;;;;;;4988753;28;20035;-80
2021/05/31 01:04:18;;;;;;;9.90;6.18;;;11.70;99.90;;;;;;5003539;28;20030;-79
2021/05/31 01:06:59;;;;;;;7.72;5.78;;;11.60;99.90;;;;;;4988522;28;20066;-80
2021/05/31 01:09:31;;;;;;;9.57;5.80;;;11.60;99.90;;;;;;4988760;28;20463;-80
2021/05/31 01:12:44;;;;;;;8.45;6.20;;;11.50;99.90;;;;;;4988716;28;20030;-80
2021/05/31 01:15:15;;;;;;;11.20;6.75;;;11.50;99.90;;;;;;4988098;28;20062;-80
2021/05/31 01:17:58;;;;;;;10.40;5.85;;;11.40;99.90;;;;;;4988537;28;20031;-80
2021/05/31 01:20:43;;;;;;;10.20;7.35;;;11.40;99.90;;;;;;4988611;28;20031;-80
2021/05/31 01:23:12;;;;;;;10.27;6.18;;;11.40;99.90;;;;;;4981010;28;20487;-81
2021/05/31 01:26:15;;;;;;;10.25;6.78;;;11.40;99.90;;;;;;4987191;28;20050;-80
2021/05/31 01:28:47;;;;;;;9.63;5.55;;;11.40;99.90;;;;;;4987316;28;20057;-80
2021/05/31 01:31:16;;;;;;;11.63;6.43;;;11.30;99.90;;;;;;4987885;28;20038;-80
2021/05/31 01:33:42;;;;;;;13.30;6.65;;;11.30;99.90;;;;;;4988219;28;20034;-80
2021/05/31 01:36:09;;;;;;;9.07;6.75;;;11.30;99.90;;;;;;4987990;28;20039;-80
2021/05/31 01:38:38;;;;;;;8.38;6.45;;;11.30;99.90;;;;;;4988316;28;20035;-81
2021/05/31 01:41:05;;;;;;;10.38;7.82;;;11.30;99.90;;;;;;4986854;28;20070;-80
2021/05/31 01:43:32;;;;;;;9.00;6.07;;;11.30;99.90;;;;;;4986543;28;20041;-81
2021/05/31 01:46:00;;;;;;;15.13;7.63;;;11.30;99.90;;;;;;4970735;28;20122;-80
2021/05/31 01:48:26;;;;;;;12.75;7.40;;;11.30;99.90;;;;;;4970556;28;20031;-81
2021/05/31 01:50:52;;;;;;;10.18;7.15;;;11.30;99.90;;;;;;4970519;28;20077;-80
2021/05/31 01:53:19;;;;;;;12.90;7.10;;;11.30;99.90;;;;;;4970240;28;20031;-80
2021/05/31 01:55:45;;;;;;;11.77;7.18;;;11.30;99.90;;;;;;4987748;28;20057;-80
2021/05/31 01:58:12;;;;;;;13.18;8.27;;;11.20;99.90;;;;;;4986546;28;20039;-80
2021/05/31 02:00:38;;;;;;;8.23;5.25;;;11.20;99.90;;;;;;4987510;28;20031;-80
2021/05/31 02:03:04;;;;;;;13.38;7.60;;;11.10;99.90;;;;;;4987648;28;20065;-80
2021/05/31 02:05:50;;;;;;;10.77;7.35;;;11.10;99.90;;;;;;4986197;28;20106;-80
2021/05/31 02:08:15;;;;;;;14.05;8.18;;;11.10;99.90;;;;;;4946510;29;20046;-80
2021/05/31 02:10:41;;;;;;;13.57;8.13;;;11.10;99.90;;;;;;4946351;29;20071;-80
2021/05/31 02:13:08;;;;;;;12.10;8.23;;;11.10;99.90;;;;;;4946446;29;20046;-79
2021/05/31 02:15:55;;;;;;;16.85;8.13;;;11.10;99.90;;;;;;4946233;29;20042;-80
2021/05/31 02:18:29;;;;;;;15.15;8.43;;;11.00;99.90;;;;;;4946683;29;20032;-80
2021/05/31 02:21:09;;;;;;;14.13;8.45;;;11.00;99.90;;;;;;4946475;29;20048;-79
2021/05/31 02:23:41;;;;;;;13.40;8.52;;;10.90;99.90;;;;;;4946252;29;20676;-80
2021/05/31 02:26:14;;;;;;;13.65;7.55;;;10.90;99.90;;;;;;4946212;29;20550;-79
2021/05/31 02:28:40;;;;;;;14.20;8.48;;;10.90;99.90;;;;;;4946232;29;20032;-80
2021/05/31 02:31:09;;;;;;;16.60;9.40;;;10.90;99.90;;;;;;4946044;29;20058;-79
2021/05/31 02:33:35;;;;;;;15.40;9.70;;;10.90;99.90;;;;;;4930133;29;20040;-80
2021/05/31 02:36:02;;;;;;;13.93;9.57;;;10.90;99.90;;;;;;4945919;29;20039;-80
2021/05/31 02:38:28;;;;;;;11.20;7.60;;;10.80;99.90;;;;;;4930183;29;20485;-81
2021/05/31 02:40:53;;;;;;;11.68;6.78;;;10.80;99.90;;;;;;4945992;29;20036;-81
2021/05/31 02:43:19;;;;;;;15.48;9.98;;;10.80;99.90;;;;;;4945119;29;20032;-80
2021/05/31 02:45:45;;;;;;;15.23;9.18;;;10.80;99.90;;;;;;4973125;28;20097;-80
2021/05/31 02:48:10;;;;;;;14.32;8.80;;;10.80;99.90;;;;;;4985508;28;20035;-78
2021/05/31 02:50:36;;;;;;;15.77;9.63;;;10.80;99.90;;;;;;4986721;28;20102;-80
2021/05/31 02:53:02;;;;;;;13.85;8.23;;;10.80;99.90;;;;;;4969387;28;20054;-79
2021/05/31 02:55:29;;;;;;;11.38;8.38;;;10.70;99.90;;;;;;4986397;28;20043;-80
2021/05/31 02:57:55;;;;;;;11.85;8.73;;;10.70;99.90;;;;;;4986823;28;20041;-79
2021/05/31 03:00:23;;;;;;;13.80;8.32;;;10.70;99.90;;;;;;4986584;28;20094;-80
2021/05/31 03:02:49;;;;;;;13.93;8.63;;;10.70;99.90;;;;;;4986606;28;20031;-79
2021/05/31 03:05:36;;;;;;;16.73;9.80;;;10.70;99.90;;;;;;4985095;28;20038;-79
2021/05/31 03:08:01;;;;;;;13.32;9.23;;;10.70;99.90;;;;;;4984318;28;20042;-80
2021/05/31 03:10:29;;;;;;;15.43;9.05;;;10.60;99.90;;;;;;4984157;28;20114;-79
2021/05/31 03:12:55;;;;;;;12.40;8.02;;;10.50;99.90;;;;;;4984272;28;20035;-79
2021/05/31 03:15:22;;;;;;;14.93;8.68;;;10.50;99.90;;;;;;4968071;28;20050;-79
2021/05/31 03:17:49;;;;;;;11.88;8.32;;;10.50;99.90;;;;;;4984543;28;20031;-80
2021/05/31 03:20:18;;;;;;;12.38;6.68;;;10.50;99.90;;;;;;4984336;28;20050;-80
2021/05/31 03:22:43;;;;;;;16.80;10.70;;;10.40;99.90;;;;;;4984211;28;20089;-80
2021/05/31 03:25:10;;;;;;;14.77;10.88;;;10.40;99.90;;;;;;4967892;28;20074;-80
2021/05/31 03:27:36;;;;;;;16.27;10.00;;;10.50;99.90;;;;;;4984371;28;20035;-79
2021/05/31 03:30:08;;;;;;;16.10;8.77;;;10.40;99.90;;;;;;4984131;28;20081;-80
2021/05/31 03:32:34;;;;;;;17.52;10.60;;;10.40;99.90;;;;;;4968152;28;20035;-80
2021/05/31 03:35:00;;;;;;;16.58;9.90;;;10.30;99.90;;;;;;4967759;28;20035;-80
2021/05/31 03:37:25;;;;;;;15.90;9.80;;;10.40;99.90;;;;;;4985147;28;20603;-81
2021/05/31 03:39:51;;;;;;;15.48;9.60;;;10.40;99.90;;;;;;4968803;28;20031;-81
2021/05/31 03:42:17;;;;;;;15.45;8.90;;;10.40;99.90;;;;;;4984282;28;20416;-81
2021/05/31 03:44:42;;;;;;;14.80;9.30;;;10.40;99.90;;;;;;4977618;28;20035;-80
2021/05/31 03:47:08;;;;;;;17.95;9.77;;;10.40;99.90;;;;;;4965072;28;20055;-80
2021/05/31 03:49:33;;;;;;;15.98;10.05;;;10.30;99.90;;;;;;4965233;29;20031;-80
2021/05/31 03:51:59;;;;;;;16.27;9.63;;;10.30;99.90;;;;;;4966442;29;20046;-80
2021/05/31 03:54:25;;;;;;;18.05;9.20;;;10.40;99.90;;;;;;4983669;28;20038;-81
2021/05/31 03:56:50;;;;;;;17.35;10.10;;;10.30;99.90;;;;;;4969881;29;20093;-81
2021/05/31 03:59:16;;;;;;;19.55;9.23;;;10.30;99.90;;;;;;4968802;29;20031;-80
2021/05/31 04:01:42;;;;;;;23.40;11.93;;;10.30;99.90;;;;;;4969803;29;20070;-80
2021/05/31 04:04:07;;;;;;;17.83;10.23;;;10.30;99.90;;;;;;4969906;29;20090;-81
2021/05/31 04:06:59;;;;;;;14.48;9.52;;;10.30;99.90;;;;;;4969768;29;20031;-81
2021/05/31 04:12:10;;;;;;;18.80;10.18;;;10.30;99.90;;;;;;4969742;29;20042;-80
2021/05/31 04:14:35;;;;;;;15.65;9.52;;;10.30;99.90;;;;;;4969774;28;20063;-80
2021/05/31 04:17:01;;;;;;;15.80;10.02;;;10.40;99.90;;;;;;4984330;28;20031;-80
2021/05/31 04:19:27;;;;;;;16.33;9.75;;;10.40;99.90;;;;;;4969690;29;20337;-80
2021/05/31 04:21:53;;;;;;;15.63;9.27;;;10.40;99.90;;;;;;4969364;29;20121;-80
2021/05/31 04:24:20;;;;;;;16.13;10.05;;;10.40;99.90;;;;;;4969609;28;20039;-80
2021/05/31 04:26:47;;;;;;;17.75;10.50;;;10.50;99.90;;;;;;4988266;28;20136;-79
2021/05/31 04:29:14;;;;;;;19.30;10.60;;;10.60;99.90;;;;;;4988846;28;20039;-80
2021/05/31 04:31:40;;;;;;;15.75;10.75;;;10.60;99.90;;;;;;4985588;28;20491;-80
2021/05/31 04:34:07;;;;;;;16.73;11.30;;;10.70;99.90;;;;;;4988345;28;20037;-80
2021/05/31 04:36:33;;;;;;;19.08;10.77;;;10.80;99.90;;;;;;4988298;28;20038;-81
2021/05/31 04:39:00;;;;;;;20.20;11.70;;;10.80;99.90;;;;;;4988491;28;20407;-81
2021/05/31 04:41:26;;;;;;;22.75;14.07;;;10.90;99.90;;;;;;4988391;28;20042;-81
2021/05/31 04:43:52;;;;;;;18.73;10.80;;;11.00;99.90;;;;;;4988149;28;20034;-80
2021/05/31 04:46:18;;;;;;;18.67;12.25;;;11.00;99.90;;;;;;4987761;28;20031;-80
2021/05/31 04:48:43;;;;;;;23.35;12.13;;;11.20;99.90;;;;;;4988112;28;20062;-81
2021/05/31 04:51:09;;;;;;;16.55;11.48;;;11.20;99.90;;;;;;4988313;28;20066;-80
2021/05/31 04:53:35;;;;;;;20.13;12.57;;;11.30;99.90;;;;;;4988289;28;20102;-81
2021/05/31 04:56:03;;;;;;;20.83;11.85;;;11.40;99.90;;;;;;4986853;28;20364;-80
2021/05/31 04:58:29;;;;;;;18.15;11.60;;;11.50;99.90;;;;;;4988185;28;20444;-80
2021/05/31 05:00:55;;;;;;;20.52;13.00;;;11.50;99.90;;;;;;4986329;28;20027;-80
2021/05/31 05:03:21;;;;;;;19.58;12.60;;;11.60;99.90;;;;;;4987209;28;20027;-81
2021/05/31 05:05:47;;;;;;;17.23;11.48;;;11.80;99.90;;;;;;4982956;28;20066;-81
2021/05/31 05:08:13;;;;;;;19.92;11.40;;;11.80;99.90;;;;;;4988020;28;20387;-81
2021/05/31 05:10:39;;;;;;;19.25;11.68;;;11.90;99.90;;;;;;4988000;28;20051;-80
2021/05/31 05:13:05;;;;;;;18.67;12.10;;;11.90;99.90;;;;;;4970416;28;20479;-81
2021/05/31 05:15:31;;;;;;;21.90;12.88;;;12.10;99.90;;;;;;4986259;28;20062;-80
2021/05/31 05:17:57;;;;;;;17.65;10.13;;;12.30;99.90;;;;;;4986507;28;20038;-80
2021/05/31 05:20:25;;;;;;;23.92;13.13;;;12.30;99.90;;;;;;4986539;28;20046;-80
2021/05/31 05:22:52;;;;;;;21.52;13.40;;;12.30;99.90;;;;;;4986677;28;20035;-78
2021/05/31 05:25:18;;;;;;;21.55;14.38;;;12.20;99.90;;;;;;4988542;28;20039;-81
2021/05/31 05:27:45;;;;;;;21.35;14.30;;;12.30;99.90;;;;;;4986359;28;20038;-80
2021/05/31 05:30:17;;;;;;;14.73;10.98;;;12.50;99.90;;;;;;4988479;28;20043;-81
2021/05/31 05:32:48;;;;;;;18.75;11.95;;;12.50;99.90;;;;;;4987466;28;20099;-80
2021/05/31 05:35:25;;;;;;;22.95;11.93;;;12.70;99.90;;;;;;4986052;28;20031;-80
2021/05/31 05:38:46;;;;;;;18.83;11.30;;;12.80;99.90;;;;;;4982771;28;20463;-81
2021/05/31 05:41:01;;;;;;;19.08;12.13;;;13.00;99.90;;;;;;4968792;28;20058;-81
2021/05/31 05:46:36;;;;;;;11.27;7.70;;;13.20;99.90;;;;;;4986980;28;20038;-80
2021/05/31 05:49:01;;;;;;;14.25;9.85;;;13.20;99.90;;;;;;4987161;28;20057;-81
2021/05/31 05:51:27;;;;;;;16.77;10.52;;;13.30;99.90;;;;;;4987217;28;20054;-81
2021/05/31 05:53:58;;;;;;;18.63;11.90;;;13.50;99.90;;;;;;4987084;28;20452;-80
2021/05/31 05:56:24;;;;;;;15.90;10.88;;;13.70;99.90;;;;;;4986688;28;20050;-80
2021/05/31 05:58:51;;;;;;;16.58;10.80;;;13.90;99.90;;;;;;4987075;28;20031;-80
2021/05/31 06:01:19;;;;;;;21.20;12.85;;;13.80;99.90;;;;;;4986676;28;20043;-80
2021/05/31 06:03:45;;;;;;;13.18;9.45;;;13.80;99.90;;;;;;4985426;28;20066;-80
2021/05/31 06:06:10;;;;;;;17.55;10.02;;;14.10;99.90;;;;;;4993358;28;20027;-80
2021/05/31 06:08:36;;;;;;;13.98;9.85;;;14.30;99.90;;;;;;4986791;28;20340;-80
2021/05/31 06:11:03;;;;;;;15.20;10.27;;;14.50;99.90;;;;;;5001768;28;20053;-80
2021/05/31 06:13:30;;;;;;;19.38;13.50;;;14.60;99.90;;;;;;4985540;28;20027;-80
2021/05/31 06:15:59;;;;;;;16.55;11.38;;;14.30;99.90;;;;;;4985293;28;20035;-81
2021/05/31 06:18:25;;;;;;;17.88;11.00;;;14.50;99.90;;;;;;4986792;28;20485;-80
2021/05/31 06:20:51;;;;;;;17.48;9.73;;;15.10;99.90;;;;;;4969189;28;20035;-80
2021/05/31 06:23:17;;;;;;;12.73;8.10;;;15.20;99.90;;;;;;4986585;28;20053;-80
2021/05/31 06:25:42;;;;;;;20.48;11.95;;;15.10;99.90;;;;;;4986654;28;20141;-80
2021/05/31 06:28:08;;;;;;;13.98;10.75;;;15.20;99.90;;;;;;4985380;28;20065;-80
2021/05/31 06:30:35;;;;;;;13.30;9.07;;;15.50;99.90;;;;;;4985283;28;20043;-80
2021/05/31 06:33:00;;;;;;;18.50;11.48;;;15.60;99.90;;;;;;4986463;28;20093;-80
2021/05/31 06:35:27;;;;;;;18.02;11.57;;;15.60;99.90;;;;;;4984625;28;20106;-81
2021/05/31 06:37:55;;;;;;;10.95;8.07;;;15.80;99.90;;;;;;4985406;28;20034;-81
2021/05/31 06:40:22;;;;;;;19.02;12.63;;;15.90;99.90;;;;;;4986551;28;20029;-81
2021/05/31 06:42:48;;;;;;;18.23;12.15;;;15.70;99.90;;;;;;4986351;28;20193;-80
2021/05/31 06:45:21;;;;;;;16.15;12.05;;;15.50;99.90;;;;;;5005949;28;20030;-81
2021/05/31 06:47:47;;;;;;;16.88;12.45;;;15.80;99.90;;;;;;5005969;28;20045;-80
2021/05/31 06:50:13;;;;;;;16.70;11.48;;;16.20;99.90;;;;;;5004297;28;20123;-80
2021/05/31 06:52:39;;;;;;;17.58;11.40;;;16.20;99.90;;;;;;5005965;28;20038;-80
2021/05/31 06:55:06;;;;;;;13.88;10.35;;;16.30;99.90;;;;;;5004518;28;20061;-80
2021/05/31 06:57:33;;;;;;;18.02;10.57;;;16.60;99.90;;;;;;5004541;28;20133;-82
2021/05/31 06:59:58;;;;;;;12.82;10.50;;;16.40;99.90;;;;;;5004646;28;20094;-82
2021/05/31 07:02:24;;;;;;;14.40;9.85;;;16.80;99.90;;;;;;5004582;28;20038;-81
2021/05/31 07:04:51;;;;;;;15.20;12.02;;;17.10;99.90;;;;;;5005742;28;20030;-81
2021/05/31 07:07:19;;;;;;;16.63;10.90;;;16.90;99.90;;;;;;5005333;28;20542;-80
2021/05/31 07:09:46;;;;;;;18.45;13.13;;;17.00;99.90;;;;;;5005687;28;20060;-81
2021/05/31 07:12:14;;;;;;;16.70;10.93;;;17.00;99.90;;;;;;5004397;28;20030;-81
2021/05/31 07:14:41;;;;;;;16.17;11.90;;;17.10;99.90;;;;;;5005528;28;20031;-81
2021/05/31 07:17:08;;;;;;;11.50;8.73;;;17.10;99.90;;;;;;5004320;28;20398;-81
2021/05/31 07:19:34;;;;;;;19.20;13.40;;;17.30;99.90;;;;;;5005462;28;20044;-81
2021/05/31 07:21:59;;;;;;;18.38;12.35;;;17.20;99.90;;;;;;5005447;28;20113;-82
2021/05/31 07:24:25;;;;;;;18.92;12.75;;;17.40;99.90;;;;;;5005168;28;20030;-81
2021/05/31 07:26:53;;;;;;;15.15;10.88;;;17.50;99.90;;;;;;4984862;28;20039;-80
2021/05/31 07:29:18;;;;;;;8.15;6.38;;;18.00;99.90;;;;;;4987094;28;20035;-81
2021/05/31 07:31:44;;;;;;;10.73;8.02;;;17.90;99.90;;;;;;4988549;28;20154;-80
2021/05/31 07:34:10;;;;;;;16.08;11.07;;;17.80;99.90;;;;;;4989685;28;20505;-80
2021/05/31 07:36:35;;;;;;;14.77;10.23;;;18.10;99.90;;;;;;4988310;28;20046;-80
2021/05/31 07:39:01;;;;;;;19.13;13.10;;;18.30;99.90;;;;;;4989712;28;20042;-80
2021/05/31 07:41:27;;;;;;;17.30;11.60;;;17.80;99.90;;;;;;4988258;28;20030;-81
2021/05/31 07:43:53;;;;;;;13.38;10.02;;;17.90;99.90;;;;;;4988969;28;20034;-80
2021/05/31 07:46:20;;;;;;;14.70;9.95;;;18.50;99.90;;;;;;4971965;28;20480;-81
2021/05/31 07:48:46;;;;;;;11.82;9.60;;;18.90;99.90;;;;;;4972134;28;20039;-80
2021/05/31 07:51:17;;;;;;;13.55;10.73;;;18.80;99.90;;;;;;4971757;28;20043;-80
2021/05/31 07:53:44;;;;;;;17.60;12.73;;;18.30;99.90;;;;;;4989476;28;20114;-82
2021/05/31 07:56:10;;;;;;;26.45;16.70;;;18.00;99.90;;;;;;4989062;28;20045;-81
2021/05/31 07:58:36;;;;;;;18.83;14.07;;;17.50;99.90;;;;;;4989576;28;20039;-81
2021/05/31 08:01:03;;;;;;;16.15;12.05;;;18.10;99.90;;;;;;4988211;28;20031;-81
2021/05/31 08:03:30;;;;;;;14.20;11.40;;;18.30;99.90;;;;;;4989034;28;20429;-82
2021/05/31 08:05:55;;;;;;;15.82;11.38;;;18.90;99.90;;;;;;4987948;28;20390;-82
2021/05/31 08:08:21;;;;;;;14.05;10.02;;;19.30;99.90;;;;;;4987645;28;20165;-82
2021/05/31 08:10:47;;;;;;;13.00;10.30;;;19.40;99.90;;;;;;4971799;28;20045;-80
2021/05/31 08:13:13;;;;;;;23.52;16.50;;;19.10;99.90;;;;;;4971682;28;20050;-81
2021/05/31 08:15:38;;;;;;;20.33;13.82;;;18.40;99.90;;;;;;4988998;28;20081;-81
2021/05/31 08:18:04;;;;;;;16.75;12.70;;;18.70;99.90;;;;;;4987583;28;20086;-81
2021/05/31 08:20:30;;;;;;;14.32;10.38;;;19.10;99.90;;;;;;4971542;28;20067;-81
2021/05/31 08:22:55;;;;;;;15.98;10.50;;;19.00;99.90;;;;;;4988821;28;20170;-82
2021/05/31 08:25:21;;;;;;;13.50;11.00;;;19.10;99.90;;;;;;4971531;28;20035;-83
2021/05/31 08:27:46;;;;;;;15.50;11.07;;;19.50;99.90;;;;;;4987448;28;20121;-86
2021/05/31 08:30:14;;;;;;;19.00;13.60;;;19.60;99.90;;;;;;4971419;28;20137;-82
2021/05/31 08:32:39;;;;;;;16.52;12.18;;;19.10;99.90;;;;;;4988922;28;20027;-84
2021/05/31 08:35:06;;;;;;;19.23;13.38;;;19.70;99.90;;;;;;4987920;28;20479;-85
2021/05/31 08:37:32;;;;;;;19.00;13.88;;;19.10;99.90;;;;;;4988628;28;20115;-86
2021/05/31 08:39:57;;;;;;;21.52;16.45;;;19.00;99.90;;;;;;4970272;28;20039;-82
2021/05/31 08:42:23;;;;;;;14.95;11.05;;;18.80;99.90;;;;;;4988954;28;20045;-84
2021/05/31 08:44:49;;;;;;;14.65;12.40;;;19.60;99.90;;;;;;5005244;28;20030;-85
2021/05/31 08:47:15;;;;;;;15.50;12.18;;;19.10;99.90;;;;;;5008199;28;20176;-83
2021/05/31 08:49:40;;;;;;;19.25;13.60;;;19.70;99.90;;;;;;4990761;28;20372;-85
2021/05/31 08:52:07;;;;;;;16.35;11.93;;;19.60;99.90;;;;;;5012748;23;20125;-86
2021/05/31 08:54:33;;;;;;;21.40;16.10;;;20.10;99.90;;;;;;4987620;28;20038;-85
2021/05/31 08:56:59;;;;;;;16.25;14.13;;;19.10;99.90;;;;;;4987478;28;20062;-85
2021/05/31 08:59:25;;;;;;;13.90;11.27;;;19.30;99.90;;;;;;4971404;28;20034;-83
2021/05/31 09:01:52;;;;;;;18.83;15.38;;;19.80;99.90;;;;;;4987513;28;20122;-86
2021/05/31 09:04:21;;;;;;;17.35;11.73;;;19.50;99.90;;;;;;4971090;28;20121;-83
2021/05/31 09:06:57;;;;;;;14.88;11.27;;;19.90;99.90;;;;;;4987331;28;20081;-86
2021/05/31 09:09:43;;;;;;;9.32;8.07;;;20.50;99.90;;;;;;4988406;28;20030;-85
2021/05/31 09:12:11;;;;;;;12.73;9.55;;;20.50;99.90;;;;;;4987228;28;20054;-84
2021/05/31 09:14:37;;;;;;;13.98;10.48;;;20.00;99.90;;;;;;4970938;28;20074;-86
2021/05/31 09:17:04;;;;;;;17.33;14.90;;;20.40;99.90;;;;;;4988200;28;20050;-84
2021/05/31 09:19:29;;;;;;;18.30;15.38;;;20.10;99.90;;;;;;4970902;28;20085;-86
2021/05/31 09:21:55;;;;;;;16.55;13.40;;;19.50;99.90;;;;;;4988336;28;20038;-86
2021/05/31 09:24:24;;;;;;;13.90;10.27;;;19.80;99.90;;;;;;4986897;28;20046;-86
2021/05/31 09:26:52;;;;;;;9.85;8.35;;;20.30;99.90;;;;;;4968779;28;20058;-83
2021/05/31 09:29:19;;;;;;;18.30;13.10;;;20.70;99.90;;;;;;4967700;29;20027;-85
2021/05/31 09:31:56;;;;;;;12.38;10.13;;;19.80;99.90;;;;;;4967522;29;20111;-86
2021/05/31 09:34:24;;;;;;;15.90;12.52;;;20.10;99.90;;;;;;4967517;29;20094;-83
2021/05/31 09:36:54;;;;;;;13.75;10.25;;;20.20;99.90;;;;;;4968329;28;20031;-85
2021/05/31 09:39:30;;;;;;;9.85;7.78;;;20.90;99.90;;;;;;4968567;28;20119;-85
2021/05/31 09:42:06;;;;;;;8.80;7.35;;;20.90;99.90;;;;;;4968459;29;20031;-85
2021/05/31 09:44:32;;;;;;;12.70;10.15;;;21.40;99.90;;;;;;4983791;28;20039;-85
2021/05/31 09:46:57;;;;;;;9.45;8.45;;;21.20;99.90;;;;;;4986672;28;20038;-85
2021/05/31 09:49:27;;;;;;;14.00;11.50;;;21.60;99.90;;;;;;5002938;28;20138;-88
2021/05/31 09:52:00;;;;;;;;;;;20.70;99.90;;;;;;4986744;28;20073;-87
2021/05/31 09:54:44;;;;;;;16.52;13.48;;;21.00;99.90;;;;;;5002639;28;19945;-84
2021/05/31 09:57:24;;;;;;;13.60;10.15;;;20.30;99.90;;;;;;4986378;28;20031;-85
2021/05/31 10:00:09;;;;;;;12.48;8.80;;;21.20;99.90;;;;;;4987649;28;20073;-84
2021/05/31 10:02:58;;;;;;;10.90;8.60;;;21.20;99.90;;;;;;4986196;28;20027;-84
2021/05/31 10:10:56;;;;;;;13.13;9.75;;;21.50;99.90;;;;;;4965432;29;20059;-85
2021/05/31 10:13:23;;;;;;;13.30;10.27;;;21.10;99.90;;;;;;4965363;29;20039;-83
2021/05/31 10:15:49;;;;;;;8.52;6.32;;;21.20;99.90;;;;;;4949663;29;20046;-82
2021/05/31 10:18:16;;;;;;;8.15;7.25;;;21.80;99.90;;;;;;4933574;29;20039;-83
2021/05/31 10:20:43;;;;;;;8.40;6.97;;;21.90;99.90;;;;;;4965814;29;20039;-85
2021/05/31 10:23:11;;;;;;;7.00;5.55;;;22.40;99.90;;;;;;4965160;29;20082;-85
2021/05/31 10:25:41;;;;;;;7.40;5.65;;;22.70;99.90;;;;;;4975002;28;20050;-84
2021/05/31 10:28:11;;;;;;;5.03;4.28;;;22.40;99.90;;;;;;4968528;28;20126;-82
2021/05/31 10:30:48;;;;;;;;;;;22.90;99.90;;;;;;4985144;28;20073;-84
2021/05/31 10:33:15;;;;;;;7.45;5.78;;;22.60;99.90;;;;;;4984426;28;19914;-85
2021/05/31 10:35:41;;;;;;;8.45;6.10;;;22.80;99.90;;;;;;4984380;28;20026;-84
2021/05/31 10:38:19;;;;;;;6.25;4.68;;;22.70;99.90;;;;;;4984569;28;20043;-84
2021/05/31 10:40:47;;;;;;;8.15;4.97;;;23.30;99.90;;;;;;4984320;28;20434;-82
2021/05/31 10:43:19;;;;;;;4.55;3.42;;;23.10;99.90;;;;;;4979743;28;20043;-83
2021/05/31 10:45:45;;;;;;;7.38;4.03;;;23.00;99.90;;;;;;4973996;28;20049;-81
2021/05/31 10:48:22;;;;;;;5.50;4.28;;;23.10;99.90;;;;;;4986664;28;20030;-87
2021/05/31 10:50:54;;;;;;;4.95;4.00;;;22.90;99.90;;;;;;4985257;28;20046;-84
2021/05/31 10:53:24;;;;;;;10.40;6.88;;;23.00;99.90;;;;;;4984998;28;20061;-84
2021/05/31 10:55:54;;;;;;;7.82;5.35;;;22.50;99.90;;;;;;5001634;28;20035;-83
2021/05/31 10:58:22;;;;;;;10.27;6.45;;;22.50;99.90;;;;;;4986408;28;20026;-83
2021/05/31 11:01:03;;;;;;;6.97;4.45;;;22.00;99.90;;;;;;4986476;28;20103;-86
2021/05/31 11:03:31;;;;;;;5.47;3.60;;;22.80;99.90;;;;;;4984471;28;20494;-86
2021/05/31 11:05:57;;;;;;;3.65;2.70;;;23.20;99.90;;;;;;4985618;28;20031;-84
2021/05/31 11:08:25;;;;;;;4.90;3.05;;;23.60;99.90;;;;;;4986040;28;20101;-83
2021/05/31 11:11:02;;;;;;;4.07;2.78;;;23.50;99.90;;;;;;4969506;28;20070;-83
2021/05/31 11:13:28;;;;;;;4.07;2.15;;;23.40;99.90;;;;;;4985216;28;20031;-83
2021/05/31 11:16:07;;;;;;;3.42;2.25;;;23.80;99.90;;;;;;4984934;28;20038;-83
2021/05/31 11:18:46;;;;;;;4.00;2.38;;;23.80;99.90;;;;;;4997777;28;20379;-83
2021/05/31 11:21:26;;;;;;;4.45;2.33;;;23.50;99.90;;;;;;5005624;28;20061;-85
2021/05/31 11:23:56;;;;;;;4.40;3.33;;;23.50;99.90;;;;;;5004099;28;20034;-84
2021/05/31 11:26:22;;;;;;;2.88;1.95;;;22.50;99.90;;;;;;4989633;28;20034;-83
2021/05/31 11:28:49;;;;;;;3.22;2.38;;;23.10;99.90;;;;;;4984951;28;20027;-84
2021/05/31 11:31:14;;;;;;;3.65;2.15;;;23.80;99.90;;;;;;4985203;28;20054;-83
2021/05/31 11:33:40;;;;;;;3.28;2.10;;;23.70;99.90;;;;;;4985298;28;20121;-83
2021/05/31 11:36:06;;;;;;;4.35;2.65;;;23.60;99.90;;;;;;4984440;28;20078;-83
2021/05/31 11:38:32;;;;;;;3.13;1.88;;;23.00;99.90;;;;;;4938455;28;20046;-84
2021/05/31 11:40:57;;;;;;;3.65;2.28;;;23.90;99.90;;;;;;4965356;29;20049;-85
2021/05/31 11:43:23;;;;;;;3.78;2.35;;;23.80;99.90;;;;;;4965083;29;20036;-82
2021/05/31 11:45:48;;;;;;;4.65;3.28;;;23.80;99.90;;;;;;4965278;29;20045;-84
2021/05/31 11:48:17;;;;;;;7.10;5.28;;;23.80;99.90;;;;;;4966007;29;20027;-84
2021/05/31 11:50:47;;;;;;;4.55;2.63;;;22.80;99.90;;;;;;4981184;28;20494;-85
2021/05/31 11:53:16;;;;;;;6.47;3.05;;;23.10;99.90;;;;;;4964885;29;20043;-84
2021/05/31 11:55:42;;;;;;;3.78;2.22;;;23.40;99.90;;;;;;4981163;28;20031;-84
2021/05/31 11:58:09;;;;;;;3.08;1.38;;;24.10;99.90;;;;;;4980797;28;20523;-86
2021/05/31 12:00:38;;;;;;;2.90;1.58;;;24.10;99.90;;;;;;4966523;29;20113;-84
2021/05/31 12:03:04;;;;;;;4.85;2.53;;;23.80;99.90;;;;;;4964321;29;20066;-85
2021/05/31 12:05:50;;;;;;;3.20;1.80;;;23.70;99.90;;;;;;4965935;29;20027;-89
2021/05/31 12:08:16;;;;;;;3.35;1.30;;;24.10;99.90;;;;;;4894304;29;20060;-84
2021/05/31 12:10:44;;;;;;;3.58;1.40;;;24.00;99.90;;;;;;4925945;29;20052;-82
2021/05/31 12:13:11;;;;;;;4.40;2.47;;;23.40;99.90;;;;;;4909933;29;20048;-85
2021/05/31 12:15:38;;;;;;;7.38;1.83;;;22.90;99.90;;;;;;4928534;29;20040;-84
2021/05/31 12:18:14;;;;;;;2.25;1.48;;;23.80;99.90;;;;;;4929251;29;20064;-85
2021/05/31 12:20:41;;;;;;;3.83;1.50;;;23.30;99.90;;;;;;4913422;29;20048;-87
2021/05/31 12:23:18;;;;;;;3.25;1.35;;;23.50;99.90;;;;;;4929208;29;20036;-84
2021/05/31 12:25:43;;;;;;;2.60;1.88;;;24.00;99.90;;;;;;4913400;29;20162;-85
2021/05/31 12:28:09;;;;;;;4.28;2.10;;;23.40;99.90;;;;;;4897705;29;20516;-85
2021/05/31 12:30:34;;;;;;;3.85;1.52;;;23.50;99.90;;;;;;4929164;29;20055;-85
2021/05/31 12:33:12;;;;;;;4.35;1.73;;;23.40;99.90;;;;;;4928765;29;20043;-84
2021/05/31 12:35:38;;;;;;;3.70;1.48;;;23.50;99.90;;;;;;4913286;29;20050;-86
2021/05/31 12:38:03;;;;;;;3.78;1.90;;;23.90;99.90;;;;;;4929051;29;20060;-85
2021/05/31 12:40:32;;;;;;;5.63;2.95;;;23.60;99.90;;;;;;4929048;29;20043;-85
2021/05/31 12:42:58;;;;;;;2.65;1.40;;;23.20;99.90;;;;;;4928925;29;20036;-86
2021/05/31 12:45:23;;;;;;;5.00;3.50;;;23.80;99.90;;;;;;4950080;29;20043;-85
2021/05/31 12:47:50;;;;;;;3.28;1.60;;;23.10;99.90;;;;;;4968228;29;20027;-86
2021/05/31 12:50:24;;;;;;;3.50;1.33;;;23.60;99.90;;;;;;4968453;29;20047;-88
2021/05/31 12:52:49;;;;;;;4.78;2.90;;;23.80;99.90;;;;;;4968043;29;20050;-88